createdAt,value
2017-07-23T00:00:38.904Z,24.27
2017-07-23T00:03:07.346Z,23.30
2017-07-23T00:05:35.652Z,22.67
2017-07-23T00:08:04.195Z,24.30
2017-07-23T00:10:33.263Z,23.80
2017-07-23T00:13:01.560Z,24.70
2017-07-23T00:15:30.762Z,26.07
2017-07-23T00:17:59.407Z,23.90
2017-07-23T00:20:27.735Z,23.77
2017-07-23T00:22:56.110Z,23.90
2017-07-23T00:25:24.447Z,25.77
2017-07-23T00:27:53.574Z,25.90
2017-07-23T00:30:23.197Z,25.60
2017-07-23T00:32:51.501Z,24.93
2017-07-23T00:35:20.043Z,27.30
2017-07-23T00:37:48.443Z,25.30
2017-07-23T00:40:16.764Z,24.30
2017-07-23T00:42:45.936Z,25.30
2017-07-23T00:45:14.319Z,24.37
2017-07-23T00:47:42.671Z,26.33
2017-07-23T00:50:10.990Z,27.00
2017-07-23T00:52:40.102Z,24.70
2017-07-23T00:55:08.428Z,24.80
2017-07-23T00:57:36.761Z,24.87
2017-07-23T01:00:05.842Z,23.97
2017-07-23T01:02:34.210Z,23.03
2017-07-23T01:05:02.514Z,26.70
2017-07-23T01:07:31.623Z,25.30
2017-07-23T01:09:59.946Z,26.30
2017-07-23T01:12:28.612Z,25.40
2017-07-23T01:14:56.940Z,25.53
2017-07-23T01:17:26.061Z,23.10
2017-07-23T01:19:55.155Z,24.03
2017-07-23T01:22:23.459Z,25.47
2017-07-23T01:24:51.811Z,24.10
2017-07-23T01:27:20.126Z,24.90
2017-07-23T01:29:48.442Z,24.40
2017-07-23T01:32:17.529Z,26.10
2017-07-23T01:34:46.696Z,26.23
2017-07-23T01:37:15.020Z,25.63
2017-07-23T01:39:43.445Z,26.23
2017-07-23T01:42:11.742Z,24.97
2017-07-23T01:44:40.094Z,24.90
2017-07-23T01:47:08.620Z,25.30
2017-07-23T01:49:36.949Z,25.03
2017-07-23T01:52:05.285Z,27.47
2017-07-23T01:54:34.398Z,27.57
2017-07-23T01:57:03.479Z,28.37
2017-07-23T01:59:31.769Z,31.97
2017-07-23T02:02:00.859Z,29.67
2017-07-23T02:04:29.171Z,26.93
2017-07-23T02:06:57.516Z,26.80
2017-07-23T02:09:25.828Z,26.20
2017-07-23T02:11:54.157Z,28.70
2017-07-23T02:14:23.218Z,31.53
2017-07-23T02:16:51.731Z,28.20
2017-07-23T02:19:20.112Z,29.03
2017-07-23T02:21:48.498Z,31.70
2017-07-23T02:24:17.590Z,30.07
2017-07-23T02:26:45.989Z,30.67
2017-07-23T02:29:14.454Z,33.33
2017-07-23T02:31:43.511Z,33.33
2017-07-23T02:34:12.643Z,32.73
2017-07-23T02:36:41.743Z,32.43
2017-07-23T02:39:10.310Z,29.73
2017-07-23T02:41:38.879Z,25.90
2017-07-23T02:44:07.996Z,19.70
2017-07-23T02:46:37.086Z,19.77
2017-07-23T02:49:05.465Z,14.30
2017-07-23T02:51:34.563Z,15.50
2017-07-23T02:54:02.947Z,12.30
2017-07-23T02:56:31.271Z,12.13
2017-07-23T02:58:59.685Z,11.30
2017-07-23T03:01:28.779Z,8.03
2017-07-23T03:03:57.851Z,9.37
2017-07-23T03:06:26.355Z,7.20
2017-07-23T03:08:55.457Z,6.80
2017-07-23T03:11:25.124Z,7.37
2017-07-23T03:13:53.447Z,7.20
2017-07-23T03:16:21.755Z,6.40
2017-07-23T03:18:50.100Z,6.33
2017-07-23T03:21:18.416Z,6.10
2017-07-23T03:23:46.734Z,6.20
2017-07-23T03:26:15.819Z,6.23
2017-07-23T03:28:44.214Z,7.60
2017-07-23T03:31:13.297Z,6.83
2017-07-23T03:33:41.601Z,6.80
2017-07-23T03:36:09.913Z,6.70
2017-07-23T03:38:38.241Z,6.87
2017-07-23T03:41:06.552Z,6.33
2017-07-23T03:43:35.000Z,8.73
2017-07-23T03:46:03.381Z,7.70
2017-07-23T03:48:32.570Z,7.97
2017-07-23T03:51:00.846Z,7.60
2017-07-23T03:53:30.047Z,7.53
2017-07-23T03:55:59.127Z,7.13
2017-07-23T03:58:27.519Z,7.00
2017-07-23T04:00:56.624Z,7.33
2017-07-23T04:03:25.682Z,6.90
2017-07-23T04:05:53.999Z,8.93
2017-07-23T04:08:22.307Z,7.57
2017-07-23T04:10:50.621Z,7.23
2017-07-23T04:13:18.927Z,6.80
2017-07-23T04:15:47.490Z,8.63
2017-07-23T04:18:16.592Z,7.60
2017-07-23T04:20:45.684Z,7.07
2017-07-23T04:23:14.780Z,8.07
2017-07-23T04:25:43.877Z,8.97
2017-07-23T04:28:12.975Z,6.60
2017-07-23T04:30:42.062Z,8.70
2017-07-23T04:33:11.273Z,8.27
2017-07-23T04:35:40.335Z,9.20
2017-07-23T04:38:08.831Z,8.63
2017-07-23T04:40:37.931Z,6.40
2017-07-23T04:43:06.990Z,6.07
2017-07-23T04:45:35.302Z,7.50
2017-07-23T04:48:03.728Z,6.50
2017-07-23T04:50:32.261Z,6.97
2017-07-23T04:53:01.358Z,7.23
2017-07-23T04:55:29.839Z,6.13
2017-07-23T04:57:58.208Z,6.47
2017-07-23T05:00:27.306Z,7.07
2017-07-23T05:02:55.791Z,6.60
2017-07-23T05:05:24.167Z,6.70
2017-07-23T05:07:52.546Z,6.93
2017-07-23T05:10:21.044Z,6.50
2017-07-23T05:12:49.408Z,6.40
2017-07-23T05:15:19.216Z,6.03
2017-07-23T05:17:48.310Z,6.37
2017-07-23T05:20:17.414Z,8.77
2017-07-23T05:22:45.765Z,9.90
2017-07-23T05:25:14.888Z,8.03
2017-07-23T05:27:43.219Z,8.80
2017-07-23T05:30:11.532Z,7.10
2017-07-23T05:32:40.633Z,8.33
2017-07-23T05:35:09.845Z,7.23
2017-07-23T05:37:38.311Z,7.97
2017-07-23T05:40:06.628Z,7.90
2017-07-23T05:42:34.938Z,6.70
2017-07-23T05:45:03.347Z,7.50
2017-07-23T05:47:31.668Z,8.33
2017-07-23T05:50:00.209Z,5.70
2017-07-23T05:52:29.306Z,4.53
2017-07-23T05:54:58.500Z,5.03
2017-07-23T05:57:26.880Z,4.87
2017-07-23T05:59:56.180Z,4.47
2017-07-23T06:02:25.518Z,6.53
2017-07-23T06:04:54.142Z,7.40
2017-07-23T06:07:23.242Z,6.87
2017-07-23T06:09:51.648Z,7.93
2017-07-23T06:12:20.012Z,5.57
2017-07-23T06:14:49.058Z,7.20
2017-07-23T06:17:17.488Z,9.73
2017-07-23T06:19:46.719Z,6.97
2017-07-23T06:22:15.207Z,5.20
2017-07-23T06:24:43.507Z,6.90
2017-07-23T06:27:11.817Z,7.00
2017-07-23T06:29:40.141Z,7.50
2017-07-23T06:32:08.469Z,7.70
2017-07-23T06:34:37.038Z,7.50
2017-07-23T06:37:06.146Z,8.60
2017-07-23T06:39:34.529Z,8.10
2017-07-23T06:42:02.846Z,6.53
2017-07-23T06:44:31.720Z,8.27
2017-07-23T06:47:00.027Z,8.80
2017-07-23T06:49:28.448Z,8.40
2017-07-23T06:51:57.646Z,9.03
2017-07-23T06:54:25.936Z,8.47
2017-07-23T06:56:54.266Z,9.53
2017-07-23T06:59:22.673Z,10.40
2017-07-23T07:01:51.152Z,8.60
2017-07-23T07:04:20.248Z,8.00
2017-07-23T07:06:49.343Z,7.77
2017-07-23T07:09:17.723Z,9.90
2017-07-23T07:11:46.115Z,9.03
2017-07-23T07:14:14.485Z,11.80
2017-07-23T07:16:43.572Z,10.73
2017-07-23T07:19:12.650Z,10.97
2017-07-23T07:21:41.327Z,12.60
2017-07-23T07:24:09.663Z,11.67
2017-07-23T07:26:37.972Z,14.23
2017-07-23T07:29:07.105Z,15.23
2017-07-23T07:31:35.419Z,13.63
2017-07-23T07:34:03.777Z,18.00
2017-07-23T07:36:32.110Z,14.03
2017-07-23T07:39:01.223Z,12.30
2017-07-23T07:41:29.615Z,10.03
2017-07-23T07:43:58.903Z,9.13
2017-07-23T07:46:27.237Z,10.63
2017-07-23T07:48:55.879Z,9.90
2017-07-23T07:51:24.244Z,9.97
2017-07-23T07:53:53.315Z,10.77
2017-07-23T07:56:21.641Z,10.83
2017-07-23T07:58:49.952Z,11.33
2017-07-23T08:01:18.284Z,9.57
2017-07-23T08:03:46.583Z,10.00
2017-07-23T08:06:14.911Z,9.53
2017-07-23T08:08:43.980Z,9.43
2017-07-23T08:11:12.501Z,9.87
2017-07-23T08:13:41.946Z,10.30
2017-07-23T08:16:11.096Z,7.60
2017-07-23T08:18:39.482Z,8.43
2017-07-23T08:21:08.155Z,6.87
2017-07-23T08:23:37.219Z,8.20
2017-07-23T08:26:05.524Z,8.17
2017-07-23T08:28:34.606Z,8.30
2017-07-23T08:31:02.926Z,6.93
2017-07-23T08:33:31.258Z,9.20
2017-07-23T08:35:59.866Z,9.10
2017-07-23T08:38:28.346Z,7.43
2017-07-23T08:40:56.655Z,9.33
2017-07-23T08:43:25.002Z,7.93
2017-07-23T08:45:53.322Z,6.93
2017-07-23T08:48:21.664Z,6.50
2017-07-23T08:50:49.973Z,7.63
2017-07-23T08:53:18.496Z,8.37
2017-07-23T08:55:46.937Z,7.60
2017-07-23T08:58:15.239Z,7.20
2017-07-23T09:00:44.363Z,8.87
2017-07-23T09:03:13.552Z,9.30
2017-07-23T09:05:41.916Z,9.97
2017-07-23T09:08:11.009Z,8.87
2017-07-23T09:10:40.124Z,9.37
2017-07-23T09:13:08.442Z,11.20
2017-07-23T09:15:36.791Z,11.30
2017-07-23T09:18:05.127Z,8.83
2017-07-23T09:20:33.623Z,8.27
2017-07-23T09:23:01.947Z,10.47
2017-07-23T09:25:30.264Z,10.07
2017-07-23T09:27:59.394Z,9.13
2017-07-23T09:30:27.698Z,8.10
2017-07-23T09:32:56.038Z,11.93
2017-07-23T09:35:24.427Z,10.60
2017-07-23T09:37:52.787Z,9.60
2017-07-23T09:40:21.583Z,11.40
2017-07-23T09:42:50.330Z,14.90
2017-07-23T09:45:18.664Z,14.40
2017-07-23T09:47:47.018Z,12.00
2017-07-23T09:50:15.360Z,14.60
2017-07-23T09:52:43.672Z,11.63
2017-07-23T09:55:12.005Z,8.30
2017-07-23T09:57:40.331Z,9.53
2017-07-23T10:00:08.659Z,7.40
2017-07-23T10:02:36.967Z,7.40
2017-07-23T10:05:05.356Z,6.33
2017-07-23T10:07:34.567Z,8.50
2017-07-23T10:10:03.027Z,7.60
2017-07-23T10:12:32.091Z,7.47
2017-07-23T10:15:00.483Z,7.67
2017-07-23T10:17:28.800Z,6.57
2017-07-23T10:19:57.106Z,5.37
2017-07-23T10:22:25.518Z,5.33
2017-07-23T10:24:53.806Z,5.70
2017-07-23T10:27:22.134Z,5.73
2017-07-23T10:29:50.455Z,5.43
2017-07-23T10:32:18.789Z,5.80
2017-07-23T10:34:47.114Z,8.97
2017-07-23T10:37:15.425Z,8.40
2017-07-23T10:39:43.760Z,5.30
2017-07-23T10:42:12.030Z,6.37
2017-07-23T10:44:40.418Z,5.80
2017-07-23T10:47:09.509Z,5.57
2017-07-23T10:49:37.859Z,7.03
2017-07-23T10:52:06.163Z,6.33
2017-07-23T10:54:35.271Z,6.03
2017-07-23T10:57:05.350Z,7.20
2017-07-23T10:59:33.742Z,8.53
2017-07-23T11:02:02.206Z,5.50
2017-07-23T11:04:30.547Z,6.70
2017-07-23T11:06:58.911Z,6.87
2017-07-23T11:09:27.482Z,5.40
2017-07-23T11:11:55.782Z,6.07
2017-07-23T11:14:24.073Z,5.20
2017-07-23T11:16:52.392Z,6.07
2017-07-23T11:19:20.687Z,7.20
2017-07-23T11:21:49.783Z,5.93
2017-07-23T11:24:18.848Z,6.20
2017-07-23T11:26:47.170Z,7.53
2017-07-23T11:29:15.482Z,6.10
2017-07-23T11:31:43.792Z,6.20
2017-07-23T11:34:12.178Z,6.60
2017-07-23T11:36:40.663Z,6.67
2017-07-23T11:39:10.086Z,6.10
2017-07-23T11:41:38.732Z,11.13
2017-07-23T11:44:07.063Z,8.20
2017-07-23T11:46:35.346Z,8.03
2017-07-23T11:49:03.683Z,11.67
2017-07-23T11:51:33.283Z,9.93
2017-07-23T11:54:02.371Z,6.70
2017-07-23T11:56:30.688Z,5.37
2017-07-23T11:58:59.038Z,6.50
2017-07-23T12:01:28.284Z,7.67
2017-07-23T12:03:56.819Z,6.60
2017-07-23T12:06:25.921Z,4.93
2017-07-23T12:08:54.291Z,7.90
2017-07-23T12:11:23.435Z,7.80
2017-07-23T12:13:51.778Z,11.90
2017-07-23T12:16:20.109Z,5.63
2017-07-23T12:18:48.516Z,6.57
2017-07-23T12:21:16.876Z,6.70
2017-07-23T12:23:46.000Z,6.10
2017-07-23T12:26:15.183Z,4.70
2017-07-23T12:28:44.255Z,3.67
2017-07-23T12:31:13.492Z,3.20
2017-07-23T12:33:41.855Z,2.70
2017-07-23T12:36:11.375Z,2.50
2017-07-23T12:38:40.151Z,3.33
2017-07-23T12:41:09.225Z,6.23
2017-07-23T12:43:38.329Z,5.17
2017-07-23T12:46:06.657Z,9.07
2017-07-23T12:48:34.998Z,9.70
2017-07-23T12:51:04.091Z,6.13
2017-07-23T12:53:33.188Z,6.70
2017-07-23T12:56:02.252Z,9.13
2017-07-23T12:58:30.554Z,9.30
2017-07-23T13:00:59.640Z,9.67
2017-07-23T13:03:28.740Z,11.67
2017-07-23T13:05:57.810Z,9.00
2017-07-23T13:08:26.124Z,8.33
2017-07-23T13:10:54.435Z,10.83
2017-07-23T13:13:23.143Z,10.43
2017-07-23T13:15:57.487Z,9.30
2017-07-23T13:18:26.786Z,11.87
2017-07-23T13:20:55.891Z,7.70
2017-07-23T13:23:24.958Z,8.40
2017-07-23T13:25:53.259Z,8.60
2017-07-23T13:28:22.330Z,14.03
2017-07-23T13:30:50.657Z,13.17
2017-07-23T13:33:18.960Z,16.73
2017-07-23T13:35:47.286Z,10.30
2017-07-23T13:38:15.603Z,8.43
2017-07-23T13:40:43.946Z,11.00
2017-07-23T13:43:13.017Z,15.60
2017-07-23T13:45:42.133Z,12.27
2017-07-23T13:48:11.183Z,10.50
2017-07-23T13:50:39.703Z,11.10
2017-07-23T13:53:08.023Z,7.80
2017-07-23T13:55:36.370Z,11.07
2017-07-23T13:58:04.955Z,8.97
2017-07-23T14:00:33.283Z,10.40
2017-07-23T14:03:01.615Z,12.80
2017-07-23T14:05:30.323Z,6.50
2017-07-23T14:07:58.639Z,7.80
2017-07-23T14:10:27.154Z,4.80
2017-07-23T14:12:55.719Z,8.43
2017-07-23T14:15:24.120Z,8.87
2017-07-23T14:17:52.421Z,7.67
2017-07-23T14:20:21.552Z,5.97
2017-07-23T14:22:49.855Z,8.63
2017-07-23T14:25:18.197Z,6.37
2017-07-23T14:27:46.498Z,5.87
2017-07-23T14:30:15.596Z,6.40
2017-07-23T14:32:44.662Z,6.80
2017-07-23T14:35:12.974Z,6.30
2017-07-23T14:37:42.159Z,6.53
2017-07-23T14:40:10.567Z,6.33
2017-07-23T14:42:38.871Z,5.37
2017-07-23T14:45:07.186Z,9.80
2017-07-23T14:47:36.284Z,10.83
2017-07-23T14:50:05.352Z,10.87
2017-07-23T14:52:33.763Z,12.00
2017-07-23T14:55:02.842Z,10.07
2017-07-23T14:57:31.346Z,13.10
2017-07-23T15:00:00.544Z,9.00
2017-07-23T15:02:28.937Z,11.33
2017-07-23T15:04:57.237Z,9.13
2017-07-23T15:07:25.867Z,10.87
2017-07-23T15:09:54.264Z,10.83
2017-07-23T15:12:23.331Z,11.30
2017-07-23T15:14:52.422Z,9.33
2017-07-23T15:17:20.742Z,9.20
2017-07-23T15:19:49.107Z,11.40
2017-07-23T15:22:17.410Z,10.03
2017-07-23T15:24:45.741Z,10.07
2017-07-23T15:27:14.816Z,8.67
2017-07-23T15:29:43.217Z,8.00
2017-07-23T15:32:11.497Z,5.03
2017-07-23T15:34:40.586Z,5.47
2017-07-23T15:37:08.914Z,6.30
2017-07-23T15:39:37.346Z,6.57
2017-07-23T15:42:06.419Z,10.00
2017-07-23T15:44:34.729Z,8.50
2017-07-23T15:47:03.778Z,7.80
2017-07-23T15:49:32.297Z,8.57
2017-07-23T15:52:00.672Z,13.53
2017-07-23T15:54:29.203Z,10.77
2017-07-23T15:56:57.527Z,11.90
2017-07-23T15:59:26.641Z,12.27
2017-07-23T16:01:54.995Z,12.17
2017-07-23T16:04:24.060Z,11.27
2017-07-23T16:06:52.584Z,8.13
2017-07-23T16:09:21.067Z,7.20
2017-07-23T16:11:49.532Z,12.30
2017-07-23T16:14:18.637Z,9.57
2017-07-23T16:16:47.706Z,10.80
2017-07-23T16:19:16.047Z,10.17
2017-07-23T16:21:44.531Z,10.43
2017-07-23T16:24:12.853Z,11.60
2017-07-23T16:26:41.933Z,17.57
2017-07-23T16:29:11.171Z,17.90
2017-07-23T16:31:39.539Z,15.57
2017-07-23T16:34:08.616Z,14.33
2017-07-23T16:36:36.978Z,26.60
2017-07-23T16:39:06.197Z,14.90
2017-07-23T16:41:36.085Z,16.27
2017-07-23T16:44:04.494Z,13.70
2017-07-23T16:46:32.838Z,8.87
2017-07-23T16:49:01.933Z,11.90
2017-07-23T16:51:30.260Z,12.03
2017-07-23T16:53:58.594Z,11.57
2017-07-23T16:56:27.821Z,14.93
2017-07-23T16:58:56.127Z,12.80
2017-07-23T17:01:24.431Z,13.07
2017-07-23T17:03:52.856Z,16.07
2017-07-23T17:06:21.230Z,11.40
2017-07-23T17:08:50.433Z,11.53
2017-07-23T17:11:18.769Z,14.00
2017-07-23T17:13:47.149Z,8.80
2017-07-23T17:16:15.466Z,10.40
2017-07-23T17:18:43.836Z,9.47
2017-07-23T17:21:12.147Z,11.10
2017-07-23T17:23:40.466Z,7.80
2017-07-23T17:26:08.830Z,6.33
2017-07-23T17:28:37.948Z,8.87
2017-07-23T17:31:07.065Z,10.03
2017-07-23T17:33:35.526Z,8.70
2017-07-23T17:36:04.610Z,6.53
2017-07-23T17:38:33.062Z,5.87
2017-07-23T17:41:01.409Z,10.40
2017-07-23T17:43:30.575Z,10.37
2017-07-23T17:45:59.670Z,8.03
2017-07-23T17:48:28.005Z,8.37
2017-07-23T17:50:56.351Z,6.50
2017-07-23T17:53:24.679Z,6.93
2017-07-23T17:55:53.186Z,8.00
2017-07-23T17:58:21.661Z,7.43
2017-07-23T18:00:50.734Z,6.80
2017-07-23T18:03:19.368Z,6.70
2017-07-23T18:05:47.660Z,8.77
2017-07-23T18:08:16.013Z,8.50
2017-07-23T18:10:44.384Z,10.50
2017-07-23T18:13:12.723Z,6.07
2017-07-23T18:15:41.031Z,6.40
2017-07-23T18:18:10.654Z,7.83
2017-07-23T18:20:38.983Z,9.10
2017-07-23T18:23:08.231Z,6.83
2017-07-23T18:25:36.647Z,7.40
2017-07-23T18:28:05.127Z,5.93
2017-07-23T18:30:33.504Z,7.20
2017-07-23T18:33:01.793Z,7.07
2017-07-23T18:35:30.223Z,7.10
2017-07-23T18:37:58.536Z,4.77
2017-07-23T18:40:27.046Z,6.23
2017-07-23T18:42:56.276Z,5.50
2017-07-23T18:45:24.645Z,6.80
2017-07-23T18:47:52.965Z,5.77
2017-07-23T18:50:21.262Z,7.07
2017-07-23T18:52:49.620Z,7.07
2017-07-23T18:55:17.957Z,7.50
2017-07-23T18:57:46.291Z,9.97
2017-07-23T19:00:14.632Z,9.43
2017-07-23T19:02:42.997Z,7.63
2017-07-23T19:05:12.283Z,6.60
2017-07-23T19:07:40.635Z,8.33
2017-07-23T19:10:09.159Z,8.50
2017-07-23T19:12:37.631Z,4.53
2017-07-23T19:15:05.938Z,8.13
2017-07-23T19:17:34.491Z,7.07
2017-07-23T19:20:02.872Z,4.73
2017-07-23T19:22:31.347Z,5.37
2017-07-23T19:24:59.680Z,4.60
2017-07-23T19:27:27.985Z,4.90
2017-07-23T19:29:57.082Z,5.43
2017-07-23T19:32:26.191Z,5.53
2017-07-23T19:34:54.519Z,5.47
2017-07-23T19:37:22.820Z,5.63
2017-07-23T19:39:51.308Z,5.30
2017-07-23T19:42:20.379Z,6.10
2017-07-23T19:44:48.710Z,7.03
2017-07-23T19:47:17.099Z,5.73
2017-07-23T19:49:45.779Z,6.40
2017-07-23T19:52:14.132Z,5.57
2017-07-23T19:54:42.498Z,5.23
2017-07-23T19:57:10.802Z,4.63
2017-07-23T19:59:39.107Z,4.90
2017-07-23T20:02:07.434Z,4.30
2017-07-23T20:04:35.823Z,4.93
2017-07-23T20:07:04.151Z,4.77
2017-07-23T20:09:32.471Z,5.27
2017-07-23T20:12:00.951Z,5.43
2017-07-23T20:14:29.318Z,4.87
2017-07-23T20:16:57.645Z,5.30
2017-07-23T20:19:25.976Z,5.23
2017-07-23T20:21:55.045Z,4.73
2017-07-23T20:24:23.431Z,6.20
2017-07-23T20:26:51.805Z,6.87
2017-07-23T20:29:20.924Z,5.73
2017-07-23T20:31:49.270Z,6.40
2017-07-23T20:34:17.671Z,5.33
2017-07-23T20:36:46.004Z,5.70
2017-07-23T20:39:14.352Z,5.67
2017-07-23T20:41:42.650Z,6.17
2017-07-23T20:44:11.031Z,6.17
2017-07-23T20:46:39.315Z,6.53
2017-07-23T20:49:07.853Z,5.20
2017-07-23T20:51:36.230Z,6.40
2017-07-23T20:54:04.551Z,6.80
2017-07-23T20:56:33.041Z,5.20
2017-07-23T20:59:01.509Z,5.20
2017-07-23T21:01:29.822Z,4.90
2017-07-23T21:03:58.923Z,3.97
2017-07-23T21:06:27.291Z,4.67
2017-07-23T21:08:56.383Z,4.87
2017-07-23T21:11:25.596Z,3.77
2017-07-23T21:13:53.941Z,4.60
2017-07-23T21:16:22.246Z,4.77
2017-07-23T21:18:50.548Z,4.07
2017-07-23T21:21:18.845Z,4.77
2017-07-23T21:23:47.197Z,4.10
2017-07-23T21:26:15.508Z,4.00
2017-07-23T21:28:43.971Z,4.60
2017-07-23T21:31:12.263Z,4.93
2017-07-23T21:33:40.540Z,3.90
2017-07-23T21:36:08.867Z,4.00
2017-07-23T21:38:37.150Z,5.60
2017-07-23T21:41:06.234Z,4.07
2017-07-23T21:43:35.295Z,5.50
2017-07-23T21:46:03.594Z,6.27
2017-07-23T21:48:32.684Z,5.30
2017-07-23T21:51:00.982Z,4.97
2017-07-23T21:53:29.739Z,4.53
2017-07-23T21:55:58.056Z,4.53
2017-07-23T21:58:27.124Z,11.77
2017-07-23T22:00:56.256Z,8.63
2017-07-23T22:03:24.574Z,7.70
2017-07-23T22:05:53.070Z,7.00
2017-07-23T22:08:21.380Z,6.77
2017-07-23T22:10:49.679Z,7.87
2017-07-23T22:13:18.016Z,5.67
2017-07-23T22:15:46.411Z,4.07
2017-07-23T22:18:15.587Z,4.40
2017-07-23T22:20:44.690Z,6.00
2017-07-23T22:23:13.155Z,5.37
2017-07-23T22:25:41.470Z,7.13
2017-07-23T22:28:09.849Z,5.00
2017-07-23T22:30:38.180Z,12.90
2017-07-23T22:33:06.493Z,6.97
2017-07-23T22:35:34.787Z,7.50
2017-07-23T22:38:03.093Z,7.57
2017-07-23T22:40:31.403Z,6.10
2017-07-23T22:43:00.494Z,5.23
2017-07-23T22:45:29.565Z,7.03
2017-07-23T22:47:58.080Z,4.97
2017-07-23T22:50:27.139Z,6.10
2017-07-23T22:52:55.449Z,6.70
2017-07-23T22:55:24.540Z,6.47
2017-07-23T22:57:53.603Z,5.87
2017-07-23T23:00:21.951Z,10.60
2017-07-23T23:02:50.246Z,6.07
2017-07-23T23:05:18.558Z,6.50
2017-07-23T23:07:46.880Z,6.10
2017-07-23T23:10:15.188Z,4.50
2017-07-23T23:12:43.911Z,3.77
2017-07-23T23:15:12.230Z,4.97
2017-07-23T23:17:40.534Z,5.60
2017-07-23T23:20:08.959Z,5.93
2017-07-23T23:22:37.253Z,4.50
2017-07-23T23:25:05.577Z,6.03
2017-07-23T23:27:33.906Z,3.17
2017-07-23T23:30:02.221Z,3.33
2017-07-23T23:32:30.522Z,3.27
2017-07-23T23:34:58.839Z,3.53
2017-07-23T23:37:27.158Z,3.40
2017-07-23T23:39:55.464Z,4.10
2017-07-23T23:42:23.811Z,5.57
2017-07-23T23:44:52.106Z,9.33
2017-07-23T23:47:20.785Z,4.63
2017-07-23T23:49:49.870Z,5.67
2017-07-23T23:52:18.171Z,5.23
2017-07-23T23:54:47.251Z,4.30
2017-07-23T23:57:15.809Z,3.70
2017-07-23T23:59:44.157Z,5.13
